Time;durP1;ratioP1;P1;durP2;ratioP2;P2;SDS_P1;SDS_P2;PMS_P1;PMS_P2;Temp;Humidity;BMP_temperature;BMP_pressure;BME280_temperature;BME280_humidity;BME280_pressure;Samples;Min_cycle;Max_cycle;Signal;HPM_P1;HPM_P2
2023/10/15 00:00:39;;;;;;;2.00;0.80;;;;;;;;;;5068371;28;20677;-89
2023/10/15 00:03:08;;;;;;;3.00;0.97;;;;;;;;;;5070487;28;20456;-90
2023/10/15 00:05:36;;;;;;;3.60;1.10;;;;;;;;;;5066573;28;21002;-89
2023/10/15 00:08:03;;;;;;;1.40;0.80;;;;;;;;;;5066157;28;20541;-89
2023/10/15 00:10:31;;;;;;;1.60;0.70;;;;;;;;;;5069158;28;20966;-90
2023/10/15 00:12:59;;;;;;;1.90;0.90;;;;;;;;;;5068996;28;20494;-90
2023/10/15 00:15:28;;;;;;;2.20;0.80;;;;;;;;;;5067223;28;20508;-90
2023/10/15 00:17:58;;;;;;;1.60;0.90;;;;;;;;;;5069029;28;20456;-90
2023/10/15 00:20:31;;;;;;;3.20;1.10;;;;;;;;;;5073536;28;20510;-89
2023/10/15 00:23:04;;;;;;;3.40;1.13;;;;;;;;;;5073689;28;20455;-89
2023/10/15 00:25:34;;;;;;;2.53;1.23;;;;;;;;;;5072657;28;20476;-89
2023/10/15 00:28:02;;;;;;;4.60;2.73;;;;;;;;;;5071929;28;20784;-90
2023/10/15 00:30:32;;;;;;;13.43;8.40;;;;;;;;;;5073387;28;20509;-90
2023/10/15 00:33:03;;;;;;;6.10;4.20;;;;;;;;;;5065924;28;20521;-90
2023/10/15 00:35:34;;;;;;;5.37;3.10;;;;;;;;;;5073377;28;20483;-90
2023/10/15 00:38:07;;;;;;;3.50;2.40;;;;;;;;;;5069005;28;20950;-90
2023/10/15 00:40:37;;;;;;;2.77;1.10;;;;;;;;;;5072181;28;20468;-90
2023/10/15 00:43:05;;;;;;;4.50;1.10;;;;;;;;;;5071941;28;20445;-90
2023/10/15 00:45:39;;;;;;;2.73;1.00;;;;;;;;;;5067668;28;20511;-90
2023/10/15 00:48:11;;;;;;;1.80;0.90;;;;;;;;;;5071013;28;20488;-90
2023/10/15 00:50:41;;;;;;;1.40;0.80;;;;;;;;;;5068439;28;20449;-90
2023/10/15 00:53:21;;;;;;;2.00;0.87;;;;;;;;;;5072414;28;20464;-89
2023/10/15 00:55:49;;;;;;;2.30;0.97;;;;;;;;;;5092606;28;20467;-90
2023/10/15 00:58:21;;;;;;;1.80;0.90;;;;;;;;;;5069634;28;20456;-90
2023/10/15 01:00:52;;;;;;;1.80;1.00;;;;;;;;;;5070864;28;20452;-89
2023/10/15 01:03:30;;;;;;;2.27;1.20;;;;;;;;;;5064947;28;20456;-89
2023/10/15 01:06:04;;;;;;;2.60;1.00;;;;;;;;;;5069311;28;20472;-90
2023/10/15 01:08:35;;;;;;;1.73;0.90;;;;;;;;;;5068662;28;20453;-89
2023/10/15 01:11:09;;;;;;;1.73;0.93;;;;;;;;;;5072421;28;20974;-89
2023/10/15 01:13:37;;;;;;;2.00;1.00;;;;;;;;;;5071136;28;20469;-90
2023/10/15 01:16:05;;;;;;;2.90;0.90;;;;;;;;;;5072861;28;20449;-89
2023/10/15 01:18:34;;;;;;;1.47;0.77;;;;;;;;;;5071373;28;20453;-90
2023/10/15 01:21:04;;;;;;;2.57;1.00;;;;;;;;;;5072773;28;20475;-89
2023/10/15 01:23:43;;;;;;;1.80;0.90;;;;;;;;;;5068454;23;20943;-55
2023/10/15 01:26:16;;;;;;;1.60;1.07;;;;;;;;;;5042406;28;20453;-55
2023/10/15 01:28:45;;;;;;;1.50;0.80;;;;;;;;;;5040773;28;20972;-55
2023/10/15 01:31:15;;;;;;;1.70;0.80;;;;;;;;;;5042027;28;20488;-55
2023/10/15 01:33:47;;;;;;;1.70;0.87;;;;;;;;;;5034881;28;20454;-54
2023/10/15 01:36:18;;;;;;;1.87;1.00;;;;;;;;;;5031676;28;20469;-55
2023/10/15 01:38:45;;;;;;;3.83;1.13;;;;;;;;;;5031877;28;20482;-54
2023/10/15 01:41:16;;;;;;;1.97;1.10;;;;;;;;;;5031293;28;20454;-56
2023/10/15 01:43:46;;;;;;;1.60;0.90;;;;;;;;;;5031730;28;20477;-55
2023/10/15 01:46:24;;;;;;;1.70;1.03;;;;;;;;;;5031422;28;20461;-55
2023/10/15 01:48:51;;;;;;;2.10;1.37;;;;;;;;;;5031354;28;21067;-54
2023/10/15 01:51:19;;;;;;;1.83;1.20;;;;;;;;;;5031926;28;20535;-55
2023/10/15 01:53:47;;;;;;;1.90;1.00;;;;;;;;;;5031464;28;20446;-55
2023/10/15 01:56:20;;;;;;;2.30;1.03;;;;;;;;;;5031376;28;20463;-55
2023/10/15 01:58:48;;;;;;;2.87;1.50;;;;;;;;;;5030808;28;20456;-54
2023/10/15 02:01:21;;;;;;;2.30;1.20;;;;;;;;;;5025440;28;20458;-54
2023/10/15 02:03:48;;;;;;;1.70;1.10;;;;;;;;;;5031273;28;20444;-55
2023/10/15 02:06:19;;;;;;;1.60;0.90;;;;;;;;;;5031221;28;20533;-55
2023/10/15 02:08:51;;;;;;;2.27;1.20;;;;;;;;;;5030376;28;20485;-54
2023/10/15 02:11:22;;;;;;;1.70;1.00;;;;;;;;;;5025493;28;20446;-54
2023/10/15 02:13:49;;;;;;;2.10;0.90;;;;;;;;;;5030964;28;20537;-54
2023/10/15 02:16:18;;;;;;;1.87;0.90;;;;;;;;;;5031115;28;20500;-55
2023/10/15 02:18:51;;;;;;;2.20;1.20;;;;;;;;;;5030676;28;20963;-54
2023/10/15 02:21:19;;;;;;;1.70;0.90;;;;;;;;;;5024601;28;20496;-54
2023/10/15 02:23:52;;;;;;;2.07;1.20;;;;;;;;;;5032595;28;20446;-55
2023/10/15 02:26:30;;;;;;;1.93;1.07;;;;;;;;;;5050615;28;20502;-54
2023/10/15 02:29:07;;;;;;;2.00;1.10;;;;;;;;;;5050297;28;20453;-55
2023/10/15 02:31:41;;;;;;;2.57;1.10;;;;;;;;;;5050646;28;20473;-55
2023/10/15 02:34:14;;;;;;;2.60;1.20;;;;;;;;;;5050751;28;20504;-55
2023/10/15 02:36:42;;;;;;;2.93;1.27;;;;;;;;;;5050112;28;20445;-55
2023/10/15 02:39:09;;;;;;;1.53;0.90;;;;;;;;;;5051002;28;20563;-55
2023/10/15 02:41:41;;;;;;;4.67;1.30;;;;;;;;;;5054280;28;20465;-55
2023/10/15 02:44:12;;;;;;;2.30;1.17;;;;;;;;;;5054483;28;20444;-55
2023/10/15 02:46:47;;;;;;;1.47;0.77;;;;;;;;;;5054521;28;20485;-55
2023/10/15 02:49:16;;;;;;;2.23;1.20;;;;;;;;;;5050464;28;20445;-55
2023/10/15 02:51:45;;;;;;;1.77;1.10;;;;;;;;;;5049513;28;20568;-54
2023/10/15 02:54:27;;;;;;;1.70;0.90;;;;;;;;;;5049099;28;20473;-55
2023/10/15 02:56:56;;;;;;;5.53;1.30;;;;;;;;;;5049036;28;20455;-56
2023/10/15 02:59:23;;;;;;;2.00;1.10;;;;;;;;;;5048764;28;20560;-56
2023/10/15 03:01:56;;;;;;;4.57;1.60;;;;;;;;;;5048105;28;20548;-55
2023/10/15 03:04:33;;;;;;;2.13;1.20;;;;;;;;;;5048762;28;20457;-56
2023/10/15 03:07:17;;;;;;;1.90;1.20;;;;;;;;;;5047091;28;20531;-55
2023/10/15 03:09:48;;;;;;;2.20;1.00;;;;;;;;;;5050133;28;20445;-56
2023/10/15 03:12:17;;;;;;;2.43;1.07;;;;;;;;;;5049828;28;20515;-56
2023/10/15 03:14:45;;;;;;;2.10;1.20;;;;;;;;;;5050262;28;20445;-56
2023/10/15 03:17:14;;;;;;;1.80;1.00;;;;;;;;;;5050120;28;20510;-56
2023/10/15 03:19:43;;;;;;;2.10;1.10;;;;;;;;;;5050208;28;20513;-55
2023/10/15 03:22:12;;;;;;;2.00;1.40;;;;;;;;;;5049628;28;20477;-56
2023/10/15 03:24:43;;;;;;;1.83;1.10;;;;;;;;;;5049698;28;20457;-56
2023/10/15 03:27:16;;;;;;;1.57;1.23;;;;;;;;;;5050140;28;20460;-54
2023/10/15 03:29:45;;;;;;;1.97;0.70;;;;;;;;;;5047758;28;20813;-55
2023/10/15 03:32:13;;;;;;;1.70;1.30;;;;;;;;;;5049973;28;20519;-55
2023/10/15 03:34:47;;;;;;;2.60;1.20;;;;;;;;;;5049781;28;20453;-56
2023/10/15 03:37:15;;;;;;;1.60;1.03;;;;;;;;;;5049854;28;20452;-55
2023/10/15 03:39:54;;;;;;;3.60;1.53;;;;;;;;;;5049516;28;20477;-55
2023/10/15 03:42:26;;;;;;;2.00;1.20;;;;;;;;;;5050237;28;20813;-56
2023/10/15 03:45:00;;;;;;;1.80;1.10;;;;;;;;;;5050052;28;20914;-55
2023/10/15 03:47:28;;;;;;;1.50;0.80;;;;;;;;;;5049898;28;20448;-55
2023/10/15 03:49:56;;;;;;;2.00;1.00;;;;;;;;;;5048889;28;20445;-56
2023/10/15 03:52:26;;;;;;;3.20;1.10;;;;;;;;;;5050274;28;20548;-55
2023/10/15 03:54:55;;;;;;;1.80;1.13;;;;;;;;;;5053505;28;20971;-56
2023/10/15 03:57:27;;;;;;;1.67;1.03;;;;;;;;;;5048197;28;20448;-55
2023/10/15 03:59:56;;;;;;;2.00;1.00;;;;;;;;;;5053164;28;20477;-55
2023/10/15 04:02:26;;;;;;;2.30;0.97;;;;;;;;;;5052847;28;20468;-55
2023/10/15 04:05:00;;;;;;;2.27;1.10;;;;;;;;;;5053131;28;20449;-56
2023/10/15 04:07:30;;;;;;;2.27;1.33;;;;;;;;;;5053191;28;20449;-55
2023/10/15 04:09:58;;;;;;;4.30;1.13;;;;;;;;;;5059083;28;20444;-56
2023/10/15 04:12:27;;;;;;;1.70;0.93;;;;;;;;;;5057221;28;20496;-55
2023/10/15 04:14:56;;;;;;;1.93;1.70;;;;;;;;;;5059434;28;20444;-56
2023/10/15 04:17:24;;;;;;;2.33;1.50;;;;;;;;;;5055354;28;20548;-56
2023/10/15 04:19:51;;;;;;;1.83;1.37;;;;;;;;;;5052949;28;20538;-56
2023/10/15 04:22:18;;;;;;;2.07;1.03;;;;;;;;;;5053388;28;20469;-55
2023/10/15 04:24:50;;;;;;;2.67;1.50;;;;;;;;;;5053382;28;20456;-55
2023/10/15 04:27:18;;;;;;;3.10;1.53;;;;;;;;;;5052812;28;20449;-55
2023/10/15 04:29:49;;;;;;;4.30;1.30;;;;;;;;;;5052909;28;20449;-55
2023/10/15 04:32:28;;;;;;;5.30;1.17;;;;;;;;;;5052649;28;21038;-55
2023/10/15 04:35:01;;;;;;;3.87;1.73;;;;;;;;;;5052838;28;20483;-55
2023/10/15 04:37:29;;;;;;;1.70;1.10;;;;;;;;;;5052975;28;20457;-55
2023/10/15 04:39:58;;;;;;;2.67;1.43;;;;;;;;;;5052363;28;21006;-56
2023/10/15 04:42:35;;;;;;;2.87;1.50;;;;;;;;;;5052205;28;20845;-55
2023/10/15 04:45:03;;;;;;;3.20;1.10;;;;;;;;;;5052860;28;20453;-55
2023/10/15 04:47:38;;;;;;;2.13;1.10;;;;;;;;;;5052114;28;20514;-55
2023/10/15 04:50:14;;;;;;;5.77;3.10;;;;;;;;;;5051656;28;20939;-55
2023/10/15 04:52:42;;;;;;;3.03;1.80;;;;;;;;;;5050708;28;20461;-55
2023/10/15 04:55:11;;;;;;;3.03;1.50;;;;;;;;;;5051425;28;20507;-55
2023/10/15 04:57:39;;;;;;;2.43;1.30;;;;;;;;;;5051320;28;20901;-55
2023/10/15 05:00:07;;;;;;;2.93;1.40;;;;;;;;;;5050810;28;21049;-56
2023/10/15 05:02:35;;;;;;;2.80;1.10;;;;;;;;;;5051204;28;20548;-55
2023/10/15 05:05:05;;;;;;;1.90;1.30;;;;;;;;;;5050156;28;20437;-55
2023/10/15 05:07:32;;;;;;;2.60;1.47;;;;;;;;;;5052232;28;20954;-55
2023/10/15 05:10:00;;;;;;;2.23;1.50;;;;;;;;;;5058751;28;20514;-55
2023/10/15 05:12:29;;;;;;;1.80;1.20;;;;;;;;;;5056265;28;20466;-55
2023/10/15 05:14:56;;;;;;;4.23;1.40;;;;;;;;;;5057038;28;21021;-56
2023/10/15 05:17:23;;;;;;;2.57;1.40;;;;;;;;;;5052434;28;20563;-56
2023/10/15 05:19:55;;;;;;;1.80;1.20;;;;;;;;;;5051778;28;20538;-55
2023/10/15 05:22:22;;;;;;;2.03;1.20;;;;;;;;;;5052415;28;20471;-55
2023/10/15 05:24:50;;;;;;;2.30;1.30;;;;;;;;;;5052436;28;20589;-55
2023/10/15 05:27:17;;;;;;;2.37;1.50;;;;;;;;;;5049289;28;20858;-56
2023/10/15 05:29:44;;;;;;;2.50;1.50;;;;;;;;;;5051807;28;20932;-55
2023/10/15 05:32:11;;;;;;;7.50;1.70;;;;;;;;;;5071196;23;20861;-56
2023/10/15 05:34:39;;;;;;;2.20;1.67;;;;;;;;;;5071968;28;20996;-59
2023/10/15 05:37:08;;;;;;;3.30;1.80;;;;;;;;;;5071161;28;20459;-58
2023/10/15 05:39:35;;;;;;;2.57;2.00;;;;;;;;;;5071950;28;20445;-59
2023/10/15 05:42:06;;;;;;;5.83;5.27;;;;;;;;;;5071354;28;20538;-58
2023/10/15 05:44:34;;;;;;;5.37;4.87;;;;;;;;;;5071146;28;20480;-59
2023/10/15 05:47:01;;;;;;;5.33;4.00;;;;;;;;;;5068484;28;20459;-58
2023/10/15 05:49:29;;;;;;;5.60;4.63;;;;;;;;;;5069660;28;20440;-58
2023/10/15 05:51:56;;;;;;;6.37;5.30;;;;;;;;;;5064229;28;20500;-58
2023/10/15 05:54:24;;;;;;;5.07;3.43;;;;;;;;;;5070569;28;21016;-57
2023/10/15 05:56:52;;;;;;;3.30;1.80;;;;;;;;;;5064863;28;20445;-59
2023/10/15 05:59:19;;;;;;;2.80;1.90;;;;;;;;;;5067749;28;20490;-56
2023/10/15 06:01:46;;;;;;;2.10;1.60;;;;;;;;;;5060174;28;20632;-58
2023/10/15 06:04:14;;;;;;;2.47;1.80;;;;;;;;;;5068958;28;20448;-56
2023/10/15 06:06:41;;;;;;;3.50;2.80;;;;;;;;;;5070710;28;20472;-56
2023/10/15 06:09:11;;;;;;;3.93;3.27;;;;;;;;;;5068357;28;20448;-58
2023/10/15 06:11:40;;;;;;;5.30;4.70;;;;;;;;;;5071400;28;20444;-57
2023/10/15 06:14:08;;;;;;;2.40;2.10;;;;;;;;;;5069279;28;20460;-58
2023/10/15 06:16:36;;;;;;;2.73;2.00;;;;;;;;;;5064099;28;20448;-58
2023/10/15 06:19:03;;;;;;;4.50;3.20;;;;;;;;;;5058760;28;20478;-59
2023/10/15 06:21:30;;;;;;;5.63;3.80;;;;;;;;;;5065933;28;20500;-56
2023/10/15 06:23:57;;;;;;;4.20;3.23;;;;;;;;;;5070969;28;20440;-56
2023/10/15 06:26:25;;;;;;;4.03;2.93;;;;;;;;;;5064514;28;20498;-55
2023/10/15 06:28:53;;;;;;;4.07;2.70;;;;;;;;;;5070847;28;20494;-55
2023/10/15 06:31:20;;;;;;;4.07;2.20;;;;;;;;;;5070843;28;20440;-53
2023/10/15 06:33:48;;;;;;;4.10;2.50;;;;;;;;;;5065476;28;20469;-53
2023/10/15 06:36:15;;;;;;;3.30;2.33;;;;;;;;;;5054038;28;20870;-56
2023/10/15 06:38:43;;;;;;;2.80;2.20;;;;;;;;;;5050779;28;20480;-55
2023/10/15 06:41:10;;;;;;;3.30;2.07;;;;;;;;;;5056874;28;20484;-55
2023/10/15 06:43:37;;;;;;;4.07;1.90;;;;;;;;;;5057115;28;20461;-54
2023/10/15 06:46:09;;;;;;;2.87;1.50;;;;;;;;;;5061655;28;20493;-55
2023/10/15 06:48:37;;;;;;;2.97;1.40;;;;;;;;;;5056609;28;20846;-54
2023/10/15 06:51:06;;;;;;;2.83;1.73;;;;;;;;;;5058092;28;20441;-53
2023/10/15 06:53:34;;;;;;;3.70;2.30;;;;;;;;;;5056598;28;20556;-54
2023/10/15 06:56:01;;;;;;;2.53;2.00;;;;;;;;;;5051368;28;20940;-53
2023/10/15 06:58:29;;;;;;;3.50;2.93;;;;;;;;;;5057005;28;20441;-55
2023/10/15 07:00:57;;;;;;;4.90;2.90;;;;;;;;;;5055508;28;20552;-53
2023/10/15 07:03:25;;;;;;;3.50;2.67;;;;;;;;;;5056790;28;20461;-54
2023/10/15 07:05:53;;;;;;;5.60;2.77;;;;;;;;;;5061720;28;20538;-56
2023/10/15 07:08:20;;;;;;;3.47;2.27;;;;;;;;;;5060821;28;20464;-54
2023/10/15 07:10:49;;;;;;;4.73;2.90;;;;;;;;;;5057940;28;20456;-55
2023/10/15 07:13:18;;;;;;;3.40;2.17;;;;;;;;;;5050984;28;20464;-54
2023/10/15 07:15:45;;;;;;;2.73;2.17;;;;;;;;;;5055113;28;20437;-53
2023/10/15 07:18:13;;;;;;;4.30;2.20;;;;;;;;;;5054386;28;20464;-55
2023/10/15 07:20:41;;;;;;;4.10;3.23;;;;;;;;;;5054204;28;20509;-55
2023/10/15 07:23:09;;;;;;;2.73;2.47;;;;;;;;;;5052531;28;20465;-55
2023/10/15 07:25:36;;;;;;;3.33;2.00;;;;;;;;;;5052886;28;20884;-52
2023/10/15 07:28:04;;;;;;;3.43;2.00;;;;;;;;;;5064851;28;20950;-55
2023/10/15 07:30:33;;;;;;;3.07;2.30;;;;;;;;;;5053585;28;20484;-53
2023/10/15 07:33:01;;;;;;;2.23;1.90;;;;;;;;;;5055771;28;20487;-55
2023/10/15 07:35:29;;;;;;;4.17;2.70;;;;;;;;;;5066322;28;20440;-56
2023/10/15 07:37:57;;;;;;;2.73;2.27;;;;;;;;;;5049715;28;20468;-54
2023/10/15 07:40:27;;;;;;;3.13;2.50;;;;;;;;;;5061758;28;20468;-55
2023/10/15 07:42:56;;;;;;;3.90;2.37;;;;;;;;;;5066031;28;20474;-55
2023/10/15 07:45:26;;;;;;;4.50;2.40;;;;;;;;;;5066908;28;20440;-53
2023/10/15 07:47:54;;;;;;;3.80;2.57;;;;;;;;;;5057069;28;20480;-53
2023/10/15 07:50:23;;;;;;;3.37;2.30;;;;;;;;;;5048611;28;20550;-53
2023/10/15 07:52:50;;;;;;;2.93;2.23;;;;;;;;;;5052539;28;20468;-56
2023/10/15 07:55:19;;;;;;;6.20;3.40;;;;;;;;;;5051474;28;20886;-53
2023/10/15 07:57:47;;;;;;;4.50;3.70;;;;;;;;;;5052771;28;20437;-53
2023/10/15 08:00:16;;;;;;;4.47;3.20;;;;;;;;;;5065091;28;20515;-53
2023/10/15 08:02:45;;;;;;;4.67;4.00;;;;;;;;;;5065907;28;20902;-55
2023/10/15 08:05:14;;;;;;;4.10;3.53;;;;;;;;;;5063317;28;20953;-53
2023/10/15 08:07:41;;;;;;;4.00;3.60;;;;;;;;;;5066125;28;20829;-54
2023/10/15 08:10:09;;;;;;;4.30;3.40;;;;;;;;;;5066580;28;20464;-53
2023/10/15 08:12:37;;;;;;;3.53;3.13;;;;;;;;;;5059703;28;20616;-53
2023/10/15 08:15:06;;;;;;;3.40;2.50;;;;;;;;;;5066248;28;20444;-53
2023/10/15 08:17:34;;;;;;;3.80;2.70;;;;;;;;;;5066374;28;20440;-53
2023/10/15 08:20:03;;;;;;;5.13;4.37;;;;;;;;;;5065837;28;20833;-56
2023/10/15 08:22:31;;;;;;;4.83;4.20;;;;;;;;;;5054735;28;20489;-57
2023/10/15 08:24:58;;;;;;;6.00;3.07;;;;;;;;;;5054970;28;20472;-55
2023/10/15 08:27:26;;;;;;;5.87;4.60;;;;;;;;;;5053854;28;20479;-56
2023/10/15 08:29:54;;;;;;;4.80;3.87;;;;;;;;;;5053468;28;20437;-55
2023/10/15 08:32:26;;;;;;;5.37;3.83;;;;;;;;;;5053780;28;20801;-56
2023/10/15 08:34:54;;;;;;;6.63;3.00;;;;;;;;;;5053884;28;20528;-57
2023/10/15 08:37:22;;;;;;;4.23;3.40;;;;;;;;;;5049916;28;20986;-56
2023/10/15 08:39:50;;;;;;;4.30;3.67;;;;;;;;;;5058509;28;20935;-54
2023/10/15 08:42:19;;;;;;;3.90;3.40;;;;;;;;;;5067767;28;20545;-56
2023/10/15 08:44:49;;;;;;;3.73;2.70;;;;;;;;;;5059682;28;20534;-55
2023/10/15 08:47:18;;;;;;;3.23;2.60;;;;;;;;;;5056669;28;20462;-56
2023/10/15 08:49:48;;;;;;;9.00;2.60;;;;;;;;;;5058046;28;20444;-56
2023/10/15 08:52:17;;;;;;;4.80;2.10;;;;;;;;;;5058858;28;20854;-55
2023/10/15 08:54:45;;;;;;;2.40;2.03;;;;;;;;;;5058030;28;20496;-54
2023/10/15 08:57:12;;;;;;;2.80;1.93;;;;;;;;;;5064336;28;20436;-55
2023/10/15 08:59:39;;;;;;;3.47;2.20;;;;;;;;;;5069627;28;20943;-55
2023/10/15 09:02:08;;;;;;;3.43;2.50;;;;;;;;;;5069118;28;20586;-56
2023/10/15 09:04:37;;;;;;;5.73;2.80;;;;;;;;;;5063992;28;20466;-55
2023/10/15 09:07:04;;;;;;;3.40;2.00;;;;;;;;;;5058327;28;20827;-55
2023/10/15 09:09:33;;;;;;;4.90;2.57;;;;;;;;;;5066194;28;20432;-55
2023/10/15 09:12:00;;;;;;;3.77;2.40;;;;;;;;;;5071004;28;20892;-54
2023/10/15 09:14:39;;;;;;;3.07;2.47;;;;;;;;;;5072159;28;20919;-55
2023/10/15 09:17:09;;;;;;;3.07;1.90;;;;;;;;;;5072190;28;20498;-55
2023/10/15 09:19:38;;;;;;;4.23;1.90;;;;;;;;;;5071688;28;20440;-55
2023/10/15 09:22:06;;;;;;;2.83;2.17;;;;;;;;;;5070476;28;20516;-55
2023/10/15 09:24:33;;;;;;;3.47;1.97;;;;;;;;;;5070981;28;20487;-55
2023/10/15 09:27:01;;;;;;;3.17;1.77;;;;;;;;;;5071467;28;20505;-54
2023/10/15 09:29:30;;;;;;;2.80;1.80;;;;;;;;;;5071252;28;20509;-53
2023/10/15 09:32:02;;;;;;;10.10;6.67;;;;;;;;;;5070288;28;20994;-53
2023/10/15 09:34:29;;;;;;;5.23;3.40;;;;;;;;;;5071152;28;20523;-53
2023/10/15 09:36:59;;;;;;;3.53;3.23;;;;;;;;;;5071544;28;20444;-54
2023/10/15 09:39:28;;;;;;;2.67;1.90;;;;;;;;;;5067687;28;20524;-54
2023/10/15 09:41:56;;;;;;;3.83;2.60;;;;;;;;;;5062303;28;20495;-56
2023/10/15 09:44:25;;;;;;;2.93;1.80;;;;;;;;;;5056260;28;20445;-56
2023/10/15 09:46:52;;;;;;;2.50;1.90;;;;;;;;;;5058702;28;20444;-54
2023/10/15 09:49:20;;;;;;;3.00;1.57;;;;;;;;;;5048175;28;20519;-55
2023/10/15 09:51:48;;;;;;;2.07;1.53;;;;;;;;;;5057386;28;20536;-55
2023/10/15 09:54:19;;;;;;;3.27;2.00;;;;;;;;;;5056809;28;20947;-55
2023/10/15 09:56:47;;;;;;;4.10;1.73;;;;;;;;;;5057859;28;20456;-57
2023/10/15 09:59:15;;;;;;;4.33;1.80;;;;;;;;;;5055461;28;20826;-52
2023/10/15 10:01:45;;;;;;;3.20;1.80;;;;;;;;;;5057296;28;20857;-56
2023/10/15 10:04:42;;;;;;;3.83;1.83;;;;;;;;;;5057572;28;20476;-55
2023/10/15 10:07:22;;;;;;;3.17;1.90;;;;;;;;;;5047581;28;20455;-57
2023/10/15 10:10:01;;;;;;;2.73;1.90;;;;;;;;;;5058301;28;20449;-55
2023/10/15 10:12:37;;;;;;;2.97;1.70;;;;;;;;;;5056445;28;20452;-57
2023/10/15 10:15:11;;;;;;;3.60;1.83;;;;;;;;;;5055864;28;20999;-55
2023/10/15 10:17:39;;;;;;;3.40;1.53;;;;;;;;;;5057028;28;20496;-57
2023/10/15 10:20:11;;;;;;;2.77;1.60;;;;;;;;;;5058856;28;20472;-54
2023/10/15 10:22:39;;;;;;;3.27;1.70;;;;;;;;;;5056619;28;20509;-56
2023/10/15 10:25:11;;;;;;;2.37;1.40;;;;;;;;;;5056912;28;20913;-57
2023/10/15 10:27:42;;;;;;;2.77;1.60;;;;;;;;;;5053211;28;20460;-57
2023/10/15 10:30:27;;;;;;;2.37;1.10;;;;;;;;;;5056140;28;20440;-56
2023/10/15 10:32:54;;;;;;;3.20;1.77;;;;;;;;;;5056129;28;20531;-57
2023/10/15 10:35:23;;;;;;;2.43;1.40;;;;;;;;;;5054428;28;21014;-57
2023/10/15 10:38:05;;;;;;;2.43;1.10;;;;;;;;;;5056800;28;20951;-56
2023/10/15 10:40:47;;;;;;;3.73;1.40;;;;;;;;;;5050946;28;20445;-56
2023/10/15 10:43:18;;;;;;;3.30;1.00;;;;;;;;;;5058372;28;20486;-57
2023/10/15 10:45:53;;;;;;;2.90;1.20;;;;;;;;;;5066720;28;20502;-57
2023/10/15 10:48:22;;;;;;;2.20;1.20;;;;;;;;;;5068885;28;20448;-56
2023/10/15 10:50:49;;;;;;;2.70;1.20;;;;;;;;;;5068969;28;20444;-56
2023/10/15 10:53:18;;;;;;;1.80;1.30;;;;;;;;;;5069857;28;20469;-56
2023/10/15 10:56:04;;;;;;;2.00;1.10;;;;;;;;;;5054539;28;20445;-57
2023/10/15 10:58:31;;;;;;;2.43;1.27;;;;;;;;;;5054137;28;20540;-56
2023/10/15 11:00:59;;;;;;;4.03;1.30;;;;;;;;;;5055045;28;20851;-56
2023/10/15 11:03:26;;;;;;;2.03;1.30;;;;;;;;;;5052209;28;20567;-56
2023/10/15 11:05:54;;;;;;;1.50;0.90;;;;;;;;;;5053724;28;20441;-55
2023/10/15 11:08:22;;;;;;;5.10;1.00;;;;;;;;;;5070030;28;20440;-55
2023/10/15 11:10:51;;;;;;;1.47;0.70;;;;;;;;;;5064075;28;20859;-55
2023/10/15 11:13:19;;;;;;;2.53;1.40;;;;;;;;;;5050359;28;21031;-56
2023/10/15 11:15:47;;;;;;;2.67;0.90;;;;;;;;;;5059868;28;20525;-55
2023/10/15 11:18:14;;;;;;;2.47;0.93;;;;;;;;;;5069657;28;20440;-54
2023/10/15 11:20:41;;;;;;;2.40;1.20;;;;;;;;;;5069793;28;20448;-55
2023/10/15 11:23:10;;;;;;;2.90;0.80;;;;;;;;;;5069082;28;21072;-55
2023/10/15 11:25:37;;;;;;;2.07;1.10;;;;;;;;;;5059869;28;20449;-54
2023/10/15 11:28:07;;;;;;;1.50;0.87;;;;;;;;;;5066571;28;20440;-55
2023/10/15 11:30:35;;;;;;;1.60;1.03;;;;;;;;;;5066921;28;20927;-53
2023/10/15 11:33:07;;;;;;;2.83;1.10;;;;;;;;;;5091125;23;20880;-91
2023/10/15 11:35:34;;;;;;;2.27;1.13;;;;;;;;;;5074742;28;20557;-91
2023/10/15 11:38:08;;;;;;;1.90;1.00;;;;;;;;;;5076841;28;20510;-91
2023/10/15 11:40:38;;;;;;;1.80;1.03;;;;;;;;;;5078624;28;20425;-90
2023/10/15 11:43:13;;;;;;;1.77;0.70;;;;;;;;;;5073379;28;20515;-92
2023/10/15 11:45:41;;;;;;;2.20;1.50;;;;;;;;;;5073557;28;20451;-91
2023/10/15 11:48:11;;;;;;;1.73;1.30;;;;;;;;;;5073324;28;20512;-91
2023/10/15 11:50:40;;;;;;;2.77;1.30;;;;;;;;;;5076807;28;20440;-91
2023/10/15 11:53:07;;;;;;;2.23;1.20;;;;;;;;;;5076564;28;20475;-90
2023/10/15 11:55:37;;;;;;;2.13;1.50;;;;;;;;;;5076654;28;21024;-90
2023/10/15 11:58:10;;;;;;;2.83;1.20;;;;;;;;;;5076971;28;20490;-90
2023/10/15 12:00:39;;;;;;;3.17;1.10;;;;;;;;;;5076878;28;20452;-91
2023/10/15 12:03:09;;;;;;;2.80;0.87;;;;;;;;;;5076792;28;20563;-91
2023/10/15 12:05:37;;;;;;;1.67;1.00;;;;;;;;;;5076760;28;20448;-91
2023/10/15 12:08:05;;;;;;;2.70;1.07;;;;;;;;;;5076928;28;20848;-92
2023/10/15 12:10:32;;;;;;;2.23;0.97;;;;;;;;;;5077385;28;20445;-91
2023/10/15 12:13:00;;;;;;;2.73;1.27;;;;;;;;;;5076543;28;20534;-90
2023/10/15 12:15:30;;;;;;;1.70;0.80;;;;;;;;;;5081127;28;20452;-91
2023/10/15 12:17:58;;;;;;;2.00;0.83;;;;;;;;;;5080590;28;20531;-90
2023/10/15 12:20:26;;;;;;;4.83;1.10;;;;;;;;;;5080478;28;20456;-90
2023/10/15 12:22:54;;;;;;;2.03;1.10;;;;;;;;;;5081788;28;20515;-91
2023/10/15 12:25:21;;;;;;;1.60;0.80;;;;;;;;;;5080936;28;20498;-91
2023/10/15 12:27:48;;;;;;;2.90;0.97;;;;;;;;;;5081331;28;20471;-91
2023/10/15 12:30:23;;;;;;;1.80;0.80;;;;;;;;;;5082648;28;20452;-91
2023/10/15 12:32:50;;;;;;;4.53;1.30;;;;;;;;;;5081059;28;20472;-91
2023/10/15 12:35:19;;;;;;;2.33;1.10;;;;;;;;;;5076684;28;20513;-91
2023/10/15 12:37:46;;;;;;;2.50;1.00;;;;;;;;;;5081532;28;20448;-91
2023/10/15 12:40:21;;;;;;;2.37;0.90;;;;;;;;;;5081015;28;21024;-91
2023/10/15 12:42:49;;;;;;;2.30;1.10;;;;;;;;;;5080197;28;20475;-91
2023/10/15 12:45:16;;;;;;;1.50;0.83;;;;;;;;;;5085588;28;20752;-91
2023/10/15 12:47:44;;;;;;;2.63;0.97;;;;;;;;;;5084514;28;20445;-91
2023/10/15 12:50:14;;;;;;;2.17;1.30;;;;;;;;;;5078976;28;20444;-91
2023/10/15 12:52:44;;;;;;;1.83;1.00;;;;;;;;;;5071089;28;20462;-91
2023/10/15 12:55:11;;;;;;;1.87;1.10;;;;;;;;;;5076059;28;20498;-91
2023/10/15 12:57:38;;;;;;;3.43;1.03;;;;;;;;;;5077611;28;20445;-91
2023/10/15 13:00:11;;;;;;;1.97;1.00;;;;;;;;;;5076924;28;20432;-91
2023/10/15 13:02:39;;;;;;;1.57;0.90;;;;;;;;;;5078983;28;20488;-91
2023/10/15 13:05:07;;;;;;;2.10;1.10;;;;;;;;;;5079412;28;20449;-91
2023/10/15 13:07:35;;;;;;;2.80;1.60;;;;;;;;;;5077549;28;20930;-91
2023/10/15 13:10:04;;;;;;;3.20;1.10;;;;;;;;;;5076922;28;20527;-91
2023/10/15 13:12:32;;;;;;;2.17;1.30;;;;;;;;;;5078708;28;20459;-91
2023/10/15 13:14:59;;;;;;;2.37;1.00;;;;;;;;;;5079698;28;20493;-91
2023/10/15 13:17:27;;;;;;;2.10;1.03;;;;;;;;;;5080647;28;20471;-91
2023/10/15 13:19:54;;;;;;;2.43;1.00;;;;;;;;;;5083230;28;20424;-90
2023/10/15 13:22:22;;;;;;;3.70;1.13;;;;;;;;;;5083211;28;20526;-91
2023/10/15 13:24:49;;;;;;;2.07;1.40;;;;;;;;;;5087712;28;20559;-90
2023/10/15 13:33:12;;;;;;;2.53;1.20;;;;;;;;;;5070565;28;20537;-57
2023/10/15 13:35:40;;;;;;;1.40;0.60;;;;;;;;;;5072329;28;20835;-56
2023/10/15 13:38:09;;;;;;;1.50;0.63;;;;;;;;;;5069706;28;20433;-56
2023/10/15 13:40:36;;;;;;;1.90;0.70;;;;;;;;;;5070396;28;20599;-56
2023/10/15 13:43:04;;;;;;;9.23;1.00;;;;;;;;;;5066140;28;20534;-56
2023/10/15 13:45:31;;;;;;;1.60;0.70;;;;;;;;;;5074964;28;20973;-55
2023/10/15 13:47:58;;;;;;;1.77;0.80;;;;;;;;;;5074521;28;20444;-54
2023/10/15 13:50:27;;;;;;;2.20;0.77;;;;;;;;;;5074013;28;20502;-56
2023/10/15 13:52:54;;;;;;;2.63;0.73;;;;;;;;;;5067948;28;20457;-55
2023/10/15 13:55:22;;;;;;;2.23;0.60;;;;;;;;;;5073825;28;20510;-54
2023/10/15 13:57:51;;;;;;;1.40;0.70;;;;;;;;;;5073946;28;20448;-54
2023/10/15 14:00:19;;;;;;;1.60;0.70;;;;;;;;;;5074495;28;20548;-55
2023/10/15 14:02:47;;;;;;;3.50;1.60;;;;;;;;;;5072104;28;20519;-54
2023/10/15 14:05:15;;;;;;;1.40;0.50;;;;;;;;;;5071441;28;20527;-55
2023/10/15 14:07:45;;;;;;;1.40;0.60;;;;;;;;;;5073402;28;20483;-56
2023/10/15 14:10:13;;;;;;;2.03;0.67;;;;;;;;;;5073018;28;20910;-55
2023/10/15 14:12:40;;;;;;;1.30;0.63;;;;;;;;;;5072485;28;20453;-57
2023/10/15 14:15:10;;;;;;;1.40;0.50;;;;;;;;;;5071158;28;20529;-55
2023/10/15 14:17:38;;;;;;;1.30;0.47;;;;;;;;;;5069408;28;20532;-55
2023/10/15 14:20:09;;;;;;;1.30;0.53;;;;;;;;;;5073546;28;20534;-56
2023/10/15 14:22:37;;;;;;;1.30;0.60;;;;;;;;;;5073367;28;20551;-56
2023/10/15 14:25:06;;;;;;;1.40;0.90;;;;;;;;;;5071372;28;20445;-55
2023/10/15 14:27:33;;;;;;;2.47;0.93;;;;;;;;;;5072646;28;20943;-63
2023/10/15 14:30:01;;;;;;;1.93;0.80;;;;;;;;;;5073053;28;20478;-56
2023/10/15 14:32:29;;;;;;;2.07;0.63;;;;;;;;;;5072664;28;20894;-56
2023/10/15 14:34:59;;;;;;;1.60;0.60;;;;;;;;;;5072242;28;20468;-56
2023/10/15 14:37:26;;;;;;;3.47;0.60;;;;;;;;;;5071191;28;20436;-56
2023/10/15 14:39:54;;;;;;;1.40;0.60;;;;;;;;;;5071696;28;20557;-57
2023/10/15 14:42:22;;;;;;;2.80;0.70;;;;;;;;;;5072071;28;20519;-56
2023/10/15 14:44:51;;;;;;;1.40;0.60;;;;;;;;;;5072607;28;20480;-55
2023/10/15 14:47:18;;;;;;;1.37;0.57;;;;;;;;;;5072933;28;20930;-61
2023/10/15 14:49:46;;;;;;;1.30;0.60;;;;;;;;;;5072271;28;20428;-55
2023/10/15 14:52:13;;;;;;;1.30;0.47;;;;;;;;;;5072013;28;20432;-56
2023/10/15 14:54:40;;;;;;;1.40;0.70;;;;;;;;;;5068716;28;20424;-56
2023/10/15 14:57:10;;;;;;;1.40;0.50;;;;;;;;;;5072060;28;20439;-55
2023/10/15 14:59:39;;;;;;;1.80;0.57;;;;;;;;;;5072103;28;20486;-56
2023/10/15 15:02:08;;;;;;;1.50;0.60;;;;;;;;;;5072628;28;20494;-56